Time;durP1;ratioP1;P1;durP2;ratioP2;P2;SDS_P1;SDS_P2;PMS_P1;PMS_P2;Temp;Humidity;BMP_temperature;BMP_pressure;BME280_temperature;BME280_humidity;BME280_pressure;Samples;Min_cycle;Max_cycle;Signal;HPM_P1;HPM_P2
2021/01/07 00:00:49;;;;;;;17.83;10.43;;;230.70;2124.80;;;;;;5096703;28;20108;-59
2021/01/07 00:03:14;;;;;;;15.25;9.80;;;230.80;2099.20;;;;;;5092277;28;20020;-58
2021/01/07 00:05:40;;;;;;;17.58;9.10;;;230.80;2099.20;;;;;;5057233;28;20047;-59
2021/01/07 00:08:06;;;;;;;17.15;10.00;;;230.80;2073.60;;;;;;5092351;28;20032;-59
2021/01/07 00:10:32;;;;;;;15.88;9.13;;;230.80;2073.60;;;;;;5092462;28;20054;-62
2021/01/07 00:12:57;;;;;;;19.05;11.45;;;230.80;2048.00;;;;;;5111057;28;20023;-61
2021/01/07 00:15:23;;;;;;;17.80;10.30;;;230.80;2048.00;;;;;;5113493;28;20508;-61
2021/01/07 00:17:49;;;;;;;18.35;10.15;;;230.80;2022.40;;;;;;5114494;28;20115;-59
2021/01/07 00:20:15;;;;;;;15.70;9.50;;;230.80;2022.40;;;;;;5114936;28;20083;-61
2021/01/07 00:22:41;;;;;;;16.88;9.55;;;230.80;1996.80;;;;;;5114437;28;20030;-59
2021/01/07 00:25:08;;;;;;;10.25;7.35;;;230.80;2022.40;;;;;;5107442;28;20050;-60
2021/01/07 00:27:34;;;;;;;12.98;7.97;;;230.80;1996.80;;;;;;5094272;28;20046;-61
2021/01/07 00:30:02;;;;;;;11.48;7.35;;;230.80;2022.40;;;;;;5093602;28;20474;-60
2021/01/07 00:32:28;;;;;;;9.65;6.00;;;230.70;2048.00;;;;;;5094049;28;20339;-61
2021/01/07 00:34:53;;;;;;;10.63;6.40;;;230.70;2022.40;;;;;;5094313;28;20094;-61
2021/01/07 00:37:19;;;;;;;7.85;4.50;;;230.60;2048.00;;;;;;5075403;28;20059;-60
2021/01/07 00:39:45;;;;;;;8.98;6.00;;;230.60;2073.60;;;;;;5093233;28;20052;-61
2021/01/07 00:42:10;;;;;;;9.60;5.80;;;230.60;2099.20;;;;;;5093823;28;20405;-61
2021/01/07 00:44:36;;;;;;;9.63;5.60;;;230.60;2124.80;;;;;;5105964;28;20059;-61
2021/01/07 00:47:02;;;;;;;10.65;6.40;;;230.60;2124.80;;;;;;5113359;28;20024;-63
2021/01/07 00:49:28;;;;;;;10.43;5.90;;;230.60;2124.80;;;;;;5109946;28;20032;-61
2021/01/07 00:51:53;;;;;;;7.30;4.80;;;230.70;2022.40;;;;;;5112630;28;20086;-60
2021/01/07 00:54:19;;;;;;;7.57;5.68;;;230.60;2073.60;;;;;;5106209;28;20100;-60
2021/01/07 00:56:45;;;;;;;8.93;5.65;;;230.70;2099.20;;;;;;5110934;28;20020;-59
2021/01/07 00:59:11;;;;;;;8.40;5.38;;;230.70;2073.60;;;;;;5110661;28;20437;-61
2021/01/07 01:01:48;;;;;;;9.65;6.55;;;230.70;2048.00;;;;;;5109914;28;20027;-60
2021/01/07 01:04:14;;;;;;;8.55;4.55;;;230.80;2022.40;;;;;;5110666;28;20144;-62
2021/01/07 01:06:41;;;;;;;10.30;6.00;;;230.80;2022.40;;;;;;5104377;28;20028;-61
2021/01/07 01:09:08;;;;;;;9.80;5.65;;;230.80;2022.40;;;;;;5112251;28;20028;-61
2021/01/07 01:11:52;;;;;;;9.30;5.03;;;230.80;2022.40;;;;;;5112057;28;20106;-61
2021/01/07 01:14:19;;;;;;;7.60;4.70;;;231.00;2150.40;;;;;;5110491;28;20016;-60
2021/01/07 01:16:50;;;;;;;13.70;6.63;;;231.00;1971.20;;;;;;5109659;28;20032;-58
2021/01/07 01:19:19;;;;;;;10.80;5.07;;;231.00;1996.80;;;;;;5108561;28;20094;-58
2021/01/07 01:21:45;;;;;;;15.20;5.25;;;231.00;1996.80;;;;;;5109387;28;20539;-59
2021/01/07 01:24:11;;;;;;;8.65;5.65;;;231.00;1996.80;;;;;;5111215;28;20032;-59
2021/01/07 01:26:37;;;;;;;7.68;5.03;;;231.00;1996.80;;;;;;5111040;28;20032;-60
2021/01/07 01:29:03;;;;;;;9.00;5.03;;;231.00;1996.80;;;;;;5105351;28;20047;-58
2021/01/07 01:31:29;;;;;;;8.90;5.15;;;231.00;1996.80;;;;;;5111349;28;20043;-58
2021/01/07 01:33:54;;;;;;;8.60;4.60;;;231.10;1971.20;;;;;;5111280;28;20066;-58
2021/01/07 01:36:26;;;;;;;9.63;4.50;;;231.20;1971.20;;;;;;5112132;28;20034;-60
2021/01/07 01:38:53;;;;;;;7.10;3.90;;;231.00;1971.20;;;;;;5095959;28;20419;-55
2021/01/07 01:41:19;;;;;;;5.15;3.63;;;231.10;1945.60;;;;;;5092769;28;20057;-56
2021/01/07 01:43:45;;;;;;;6.50;4.10;;;230.90;1971.20;;;;;;5091301;28;20020;-55
2021/01/07 01:46:10;;;;;;;9.63;4.10;;;230.90;1971.20;;;;;;5092561;28;20362;-55
2021/01/07 01:48:37;;;;;;;8.80;5.05;;;230.90;1996.80;;;;;;5092086;28;20501;-55
2021/01/07 01:51:03;;;;;;;7.15;4.25;;;230.70;1996.80;;;;;;5092634;28;20020;-55
2021/01/07 01:53:30;;;;;;;8.25;4.25;;;230.70;2022.40;;;;;;5093660;28;20024;-54
2021/01/07 01:55:56;;;;;;;5.88;3.55;;;230.60;2048.00;;;;;;5096815;28;20078;-54
2021/01/07 01:58:22;;;;;;;6.15;4.05;;;230.50;2022.40;;;;;;5092959;28;20473;-55
2021/01/07 02:00:48;;;;;;;6.47;4.30;;;230.50;2048.00;;;;;;5092268;28;20073;-56
2021/01/07 02:03:14;;;;;;;8.68;5.28;;;230.50;2048.00;;;;;;5092061;28;20040;-54
2021/01/07 02:05:40;;;;;;;7.03;4.65;;;230.40;2022.40;;;;;;5092871;28;20028;-56
2021/01/07 02:08:08;;;;;;;5.10;3.97;;;205.70;2048.00;;;;;;5092162;28;20032;-55
2021/01/07 02:10:34;;;;;;;7.30;4.40;;;205.70;2048.00;;;;;;5092752;28;20028;-59
2021/01/07 02:13:02;;;;;;;6.72;4.40;;;205.60;2073.60;;;;;;5092899;28;20034;-54
2021/01/07 02:15:28;;;;;;;6.20;4.40;;;205.50;2099.20;;;;;;5101752;28;20024;-55
2021/01/07 02:17:56;;;;;;;7.05;4.40;;;205.60;2252.80;;;;;;5104604;28;20024;-54
2021/01/07 02:20:24;;;;;;;7.95;4.38;;;205.50;2073.60;;;;;;5116655;28;20027;-55
2021/01/07 02:22:54;;;;;;;8.13;5.13;;;205.30;2099.20;;;;;;5110754;28;20013;-54
2021/01/07 02:25:20;;;;;;;7.38;4.38;;;205.30;2124.80;;;;;;5099566;28;20024;-55
2021/01/07 02:27:46;;;;;;;6.70;4.25;;;205.30;2099.20;;;;;;5107856;28;20016;-54
2021/01/07 02:30:12;;;;;;;7.90;4.72;;;205.30;2124.80;;;;;;5097689;28;20031;-54
2021/01/07 02:32:38;;;;;;;6.95;5.88;;;205.30;2124.80;;;;;;5116505;28;20026;-55
2021/01/07 02:35:04;;;;;;;12.98;6.13;;;205.30;2099.20;;;;;;5115810;28;20372;-54
2021/01/07 02:37:30;;;;;;;8.48;5.50;;;205.30;2124.80;;;;;;5097158;28;20016;-54
2021/01/07 02:39:56;;;;;;;9.13;5.82;;;205.30;2124.80;;;;;;5096936;28;20112;-55
2021/01/07 02:42:25;;;;;;;7.38;5.00;;;205.20;2124.80;;;;;;5096050;28;20111;-53
2021/01/07 02:44:51;;;;;;;8.70;5.28;;;205.10;2150.40;;;;;;5096390;28;20081;-53
2021/01/07 02:47:17;;;;;;;8.10;5.13;;;205.10;2124.80;;;;;;5111222;28;20493;-55
2021/01/07 02:49:42;;;;;;;8.23;5.32;;;205.10;2150.40;;;;;;5116537;28;20088;-55
2021/01/07 02:52:08;;;;;;;8.55;5.18;;;205.10;2124.80;;;;;;5116441;28;20031;-54
2021/01/07 02:54:34;;;;;;;8.02;5.25;;;205.10;2150.40;;;;;;5111706;28;20024;-54
2021/01/07 02:57:00;;;;;;;9.68;4.45;;;205.10;2124.80;;;;;;5095794;28;20024;-54
2021/01/07 02:59:26;;;;;;;9.60;5.40;;;205.00;2124.80;;;;;;5110396;28;20031;-54
2021/01/07 03:01:52;;;;;;;7.55;4.97;;;205.10;2124.80;;;;;;5104694;28;20523;-54
2021/01/07 03:04:17;;;;;;;7.30;4.63;;;205.00;2124.80;;;;;;5115979;28;20486;-55
2021/01/07 03:06:43;;;;;;;8.35;4.40;;;205.00;2150.40;;;;;;5116222;28;20020;-56
2021/01/07 03:09:09;;;;;;;6.05;4.20;;;205.00;2150.40;;;;;;5116049;28;20446;-54
2021/01/07 03:11:35;;;;;;;7.13;3.90;;;205.00;2124.80;;;;;;5111489;28;20482;-55
2021/01/07 03:14:01;;;;;;;8.05;3.90;;;205.00;2124.80;;;;;;5088752;28;20034;-53
2021/01/07 03:16:26;;;;;;;9.38;4.30;;;205.00;2124.80;;;;;;5116390;28;20425;-54
2021/01/07 03:18:52;;;;;;;5.20;3.47;;;205.00;2124.80;;;;;;5115699;28;20106;-55
2021/01/07 03:21:17;;;;;;;7.60;4.03;;;204.90;2124.80;;;;;;5115761;28;20536;-54
2021/01/07 03:23:43;;;;;;;5.90;3.38;;;204.90;2124.80;;;;;;5115936;28;20378;-54
2021/01/07 03:26:09;;;;;;;6.75;3.92;;;204.80;2124.80;;;;;;5097966;28;20059;-54
2021/01/07 03:28:34;;;;;;;8.88;4.13;;;204.90;2124.80;;;;;;5094371;28;20035;-55
2021/01/07 03:31:00;;;;;;;6.90;4.28;;;204.80;2150.40;;;;;;5095535;28;20028;-54
2021/01/07 03:33:26;;;;;;;7.07;4.35;;;204.90;2124.80;;;;;;5092110;28;20051;-54
2021/01/07 03:35:51;;;;;;;7.80;3.25;;;204.90;2124.80;;;;;;5095794;28;20059;-54
2021/01/07 03:38:17;;;;;;;6.00;3.55;;;204.80;2124.80;;;;;;5112677;28;20106;-54
2021/01/07 03:40:43;;;;;;;6.13;3.45;;;204.80;2124.80;;;;;;5112065;28;20473;-55
2021/01/07 03:43:08;;;;;;;5.20;3.15;;;204.80;2099.20;;;;;;5105798;28;20050;-54
2021/01/07 03:45:34;;;;;;;6.32;3.25;;;204.80;2124.80;;;;;;5103450;28;20185;-55
2021/01/07 03:48:00;;;;;;;5.35;2.90;;;204.80;2124.80;;;;;;5100589;28;20032;-54
2021/01/07 03:50:26;;;;;;;4.25;2.47;;;204.80;2124.80;;;;;;5094831;28;20409;-54
2021/01/07 03:52:52;;;;;;;5.13;2.55;;;204.80;2099.20;;;;;;5094928;28;20027;-54
2021/01/07 03:55:18;;;;;;;4.65;2.67;;;180.10;2124.80;;;;;;5109181;28;20020;-55
2021/01/07 03:57:43;;;;;;;5.80;2.70;;;180.10;2124.80;;;;;;5094796;28;20024;-54
2021/01/07 04:00:09;;;;;;;5.43;2.92;;;180.10;2124.80;;;;;;5095104;28;20026;-54
2021/01/07 04:02:35;;;;;;;4.88;2.50;;;180.00;2124.80;;;;;;5094740;28;20107;-54
2021/01/07 04:05:01;;;;;;;4.43;3.10;;;179.90;2150.40;;;;;;5094347;28;20127;-54
2021/01/07 04:07:27;;;;;;;5.25;2.65;;;179.90;2150.40;;;;;;5115520;28;20077;-54
2021/01/07 04:09:52;;;;;;;6.40;3.58;;;179.90;2176.00;;;;;;5102425;28;20093;-55
2021/01/07 04:12:18;;;;;;;4.93;2.97;;;179.80;2176.00;;;;;;5095141;28;20504;-56
2021/01/07 04:14:43;;;;;;;6.32;3.58;;;179.80;2176.00;;;;;;5098171;28;20027;-54
2021/01/07 04:17:09;;;;;;;5.13;3.30;;;179.70;2201.60;;;;;;5101384;28;20020;-54
2021/01/07 04:19:35;;;;;;;5.22;2.83;;;179.80;2176.00;;;;;;5109125;28;20085;-54
2021/01/07 04:22:00;;;;;;;4.28;3.03;;;179.70;2176.00;;;;;;5105992;28;20114;-54
2021/01/07 04:24:27;;;;;;;6.90;3.35;;;179.70;2176.00;;;;;;5114648;28;20374;-54
2021/01/07 04:26:52;;;;;;;4.60;2.78;;;179.60;2176.00;;;;;;5114645;28;20385;-54
2021/01/07 04:29:18;;;;;;;3.50;2.28;;;179.70;2176.00;;;;;;5100087;28;20020;-56
2021/01/07 04:31:44;;;;;;;5.15;2.30;;;179.70;2176.00;;;;;;5114617;28;20492;-53
2021/01/07 04:34:09;;;;;;;5.00;2.60;;;179.70;2176.00;;;;;;5114665;28;20035;-54
2021/01/07 04:36:35;;;;;;;5.45;3.03;;;179.70;2150.40;;;;;;5108677;28;20390;-54
2021/01/07 04:39:00;;;;;;;5.20;3.33;;;179.70;2176.00;;;;;;5104756;28;20026;-54
2021/01/07 04:41:26;;;;;;;7.00;3.10;;;179.70;2176.00;;;;;;5111513;28;20341;-53
2021/01/07 04:43:59;;;;;;;4.95;2.47;;;179.70;2176.00;;;;;;5110537;28;20019;-54
2021/01/07 04:46:26;;;;;;;9.68;3.60;;;179.80;2150.40;;;;;;5105738;28;20028;-55
2021/01/07 04:48:52;;;;;;;5.80;2.72;;;179.70;2150.40;;;;;;5093770;28;20115;-54
2021/01/07 04:51:18;;;;;;;5.30;2.40;;;179.70;2150.40;;;;;;5093623;28;20020;-54
2021/01/07 04:53:44;;;;;;;5.07;2.40;;;179.80;2150.40;;;;;;5093413;28;20060;-55
2021/01/07 04:56:12;;;;;;;4.22;2.80;;;179.80;2150.40;;;;;;5093780;28;20489;-56
2021/01/07 04:58:38;;;;;;;4.75;2.42;;;179.80;2150.40;;;;;;5093466;28;20198;-53
2021/01/07 05:01:04;;;;;;;4.25;2.42;;;179.90;2124.80;;;;;;5093646;28;20549;-54
2021/01/07 05:03:34;;;;;;;4.07;2.80;;;179.80;2150.40;;;;;;5093090;28;20123;-55
2021/01/07 05:06:00;;;;;;;4.32;2.78;;;179.90;2124.80;;;;;;5093442;28;20042;-55
2021/01/07 05:08:27;;;;;;;8.27;3.30;;;180.00;2099.20;;;;;;5093292;28;20099;-55
2021/01/07 05:10:53;;;;;;;4.03;2.80;;;180.00;2099.20;;;;;;5098629;28;20024;-55
2021/01/07 05:13:21;;;;;;;4.55;2.53;;;180.00;2099.20;;;;;;5093102;28;20077;-55
2021/01/07 05:15:46;;;;;;;4.60;3.00;;;180.00;2099.20;;;;;;5093187;28;20088;-55
2021/01/07 05:18:12;;;;;;;6.32;3.40;;;180.10;2073.60;;;;;;5092944;28;20028;-55
2021/01/07 05:20:38;;;;;;;4.68;2.47;;;204.80;2073.60;;;;;;5095337;28;20035;-56
2021/01/07 05:23:04;;;;;;;5.53;2.55;;;180.10;2073.60;;;;;;5104468;28;20048;-55
2021/01/07 05:25:31;;;;;;;4.85;2.50;;;204.80;2073.60;;;;;;5093385;28;20465;-55
2021/01/07 05:28:01;;;;;;;4.55;2.15;;;204.80;2048.00;;;;;;5113328;28;20028;-55
2021/01/07 05:30:31;;;;;;;5.40;2.10;;;204.90;2048.00;;;;;;5113390;28;20039;-54
2021/01/07 05:33:05;;;;;;;3.22;2.03;;;204.80;2048.00;;;;;;5113354;28;20562;-54
2021/01/07 05:35:32;;;;;;;4.32;1.98;;;204.80;2022.40;;;;;;5113236;28;20034;-54
2021/01/07 05:37:59;;;;;;;2.97;1.77;;;180.10;2048.00;;;;;;5113616;28;20061;-55
2021/01/07 05:40:26;;;;;;;3.83;2.08;;;180.00;2073.60;;;;;;5113022;28;20092;-54
2021/01/07 05:42:56;;;;;;;1.90;1.60;;;180.00;2048.00;;;;;;5113036;28;20023;-54
2021/01/07 05:45:21;;;;;;;3.40;1.70;;;180.00;2073.60;;;;;;5113640;28;20024;-54
2021/01/07 05:47:52;;;;;;;4.45;2.20;;;179.90;2073.60;;;;;;5113723;28;20045;-55
2021/01/07 05:50:22;;;;;;;4.25;1.92;;;179.90;2048.00;;;;;;5119863;28;20039;-55
2021/01/07 05:52:49;;;;;;;3.83;2.13;;;180.00;2048.00;;;;;;5119832;28;20435;-53
2021/01/07 05:55:17;;;;;;;6.05;3.03;;;179.90;2022.40;;;;;;5121347;28;20034;-55
2021/01/07 05:57:44;;;;;;;7.32;2.53;;;179.90;2048.00;;;;;;5119803;28;20099;-56
2021/01/07 06:00:12;;;;;;;7.15;2.70;;;179.80;2048.00;;;;;;5115952;28;20504;-55
2021/01/07 06:02:40;;;;;;;4.95;2.35;;;179.80;2073.60;;;;;;5112760;28;20071;-54
2021/01/07 06:05:14;;;;;;;6.50;3.17;;;179.70;2099.20;;;;;;5113363;28;20039;-55
2021/01/07 06:07:41;;;;;;;6.03;3.30;;;179.60;2124.80;;;;;;5112470;28;20055;-54
2021/01/07 06:10:10;;;;;;;4.57;2.88;;;179.60;2099.20;;;;;;5112915;28;20027;-55
2021/01/07 06:12:37;;;;;;;5.75;3.40;;;179.50;2124.80;;;;;;5102510;28;20069;-54
2021/01/07 06:15:09;;;;;;;6.30;3.35;;;179.40;2124.80;;;;;;5108998;28;20544;-54
2021/01/07 06:17:37;;;;;;;8.80;3.20;;;179.40;2124.80;;;;;;5112800;28;20351;-55
2021/01/07 06:20:11;;;;;;;5.90;3.60;;;179.40;2124.80;;;;;;5100884;28;20020;-54
2021/01/07 06:22:40;;;;;;;4.85;3.00;;;179.40;2150.40;;;;;;5096918;28;20030;-54
2021/01/07 06:25:11;;;;;;;5.93;3.65;;;179.40;2124.80;;;;;;5113032;28;20466;-54
2021/01/07 06:27:40;;;;;;;5.68;3.45;;;179.40;2124.80;;;;;;5098229;28;20036;-55
2021/01/07 06:30:05;;;;;;;;;;;179.40;2150.40;;;;;;5112939;28;20473;-54
2021/01/07 06:32:31;;;;;;;7.38;3.22;;;179.30;2124.80;;;;;;5112680;28;19911;-54
2021/01/07 06:34:58;;;;;;;8.70;3.10;;;179.30;2124.80;;;;;;5112954;28;20036;-55
2021/01/07 06:37:33;;;;;;;6.60;3.35;;;179.30;2150.40;;;;;;5111779;28;20031;-55
2021/01/07 06:40:02;;;;;;;5.40;2.90;;;179.30;2124.80;;;;;;5112284;28;20034;-55
2021/01/07 06:42:28;;;;;;;6.55;3.33;;;179.30;2124.80;;;;;;5112288;28;20106;-55
2021/01/07 06:44:57;;;;;;;4.93;3.08;;;179.30;2124.80;;;;;;5112733;28;20107;-55
2021/01/07 06:47:22;;;;;;;5.93;3.10;;;179.30;2124.80;;;;;;5112490;28;20059;-54
2021/01/07 06:49:51;;;;;;;5.78;3.85;;;179.30;2124.80;;;;;;5112419;28;20120;-55
2021/01/07 06:52:22;;;;;;;5.70;3.38;;;179.40;2124.80;;;;;;5112446;28;20019;-54
2021/01/07 06:54:48;;;;;;;6.35;3.92;;;179.40;2124.80;;;;;;5108845;28;20035;-55
2021/01/07 06:57:17;;;;;;;6.28;3.85;;;179.40;2124.80;;;;;;5101921;28;20035;-55
2021/01/07 06:59:55;;;;;;;8.20;4.20;;;179.50;2124.80;;;;;;5112557;28;20373;-54
2021/01/07 07:02:20;;;;;;;6.45;3.78;;;179.50;2124.80;;;;;;5113550;28;20441;-54
2021/01/07 07:04:47;;;;;;;9.52;5.63;;;179.50;2099.20;;;;;;5115540;28;20083;-54
2021/01/07 07:07:15;;;;;;;12.98;6.45;;;179.50;2099.20;;;;;;5116108;28;20039;-54
2021/01/07 07:09:44;;;;;;;19.90;9.48;;;179.40;2124.80;;;;;;5102525;28;20528;-55
2021/01/07 07:12:29;;;;;;;21.85;10.85;;;179.50;2124.80;;;;;;5116732;28;20473;-54
2021/01/07 07:14:57;;;;;;;15.13;9.18;;;179.50;2124.80;;;;;;5116658;28;20031;-54
2021/01/07 07:17:23;;;;;;;10.50;6.97;;;179.60;2124.80;;;;;;5108665;28;20016;-54
2021/01/07 07:19:52;;;;;;;12.68;6.75;;;179.50;2099.20;;;;;;5100056;28;20093;-55
2021/01/07 07:22:19;;;;;;;11.75;7.03;;;179.50;2124.80;;;;;;5112402;28;20026;-55
2021/01/07 07:24:50;;;;;;;14.48;7.60;;;179.50;2124.80;;;;;;5116576;28;20062;-54
2021/01/07 07:27:18;;;;;;;8.77;5.90;;;179.50;2124.80;;;;;;5115861;28;20055;-55
2021/01/07 07:29:48;;;;;;;12.07;6.90;;;179.60;2124.80;;;;;;5108535;28;20466;-55
2021/01/07 07:32:27;;;;;;;12.27;7.03;;;179.60;2099.20;;;;;;5109191;28;20081;-55
2021/01/07 07:34:55;;;;;;;10.75;6.97;;;179.60;2124.80;;;;;;5091333;28;20371;-55
2021/01/07 07:37:26;;;;;;;11.88;8.30;;;179.60;2124.80;;;;;;5115817;28;20119;-55
2021/01/07 07:40:04;;;;;;;14.73;8.00;;;179.60;2124.80;;;;;;5102208;28;20055;-55
2021/01/07 07:42:30;;;;;;;13.57;7.65;;;179.60;2124.80;;;;;;5115352;28;20020;-55
2021/01/07 07:44:57;;;;;;;15.38;8.30;;;179.60;2099.20;;;;;;5115896;28;20042;-55
2021/01/07 07:47:23;;;;;;;11.23;8.55;;;179.70;2124.80;;;;;;5115354;28;20023;-54
2021/01/07 07:49:56;;;;;;;16.02;9.35;;;179.60;2099.20;;;;;;5101111;28;20080;-55
2021/01/07 07:52:23;;;;;;;19.27;10.40;;;179.70;2099.20;;;;;;5115024;28;20023;-54
2021/01/07 07:55:04;;;;;;;14.65;9.63;;;179.60;2124.80;;;;;;5097001;28;20016;-55
2021/01/07 07:57:44;;;;;;;19.52;10.82;;;179.60;2124.80;;;;;;5094406;28;20063;-54
2021/01/07 08:00:17;;;;;;;15.77;10.73;;;179.60;2124.80;;;;;;5095284;28;20516;-54
2021/01/07 08:02:50;;;;;;;17.42;10.70;;;179.70;2124.80;;;;;;5112579;28;20099;-54
2021/01/07 08:05:29;;;;;;;18.70;11.85;;;179.80;2124.80;;;;;;5106257;28;20044;-55
2021/01/07 08:07:56;;;;;;;17.27;11.48;;;179.80;2124.80;;;;;;5070006;28;20071;-54
2021/01/07 08:10:22;;;;;;;18.70;12.35;;;179.80;2124.80;;;;;;5096084;28;20055;-55
2021/01/07 08:12:51;;;;;;;19.40;12.18;;;179.80;2124.80;;;;;;5102845;28;20046;-54
2021/01/07 08:15:29;;;;;;;19.88;12.13;;;179.90;2099.20;;;;;;5093125;28;20068;-54
2021/01/07 08:17:56;;;;;;;19.98;13.45;;;179.90;2099.20;;;;;;5094326;28;20039;-54
2021/01/07 08:20:25;;;;;;;20.65;12.25;;;180.00;2099.20;;;;;;5094560;28;20020;-55
2021/01/07 08:22:54;;;;;;;18.95;12.73;;;180.00;2073.60;;;;;;5114743;28;20024;-53
2021/01/07 08:25:23;;;;;;;;;;;180.00;2099.20;;;;;;5115402;28;20039;-53
2021/01/07 08:27:51;;;;;;;21.63;12.65;;;180.00;2073.60;;;;;;5094468;28;19911;-54
2021/01/07 08:30:17;;;;;;;20.17;12.32;;;180.00;2099.20;;;;;;5106418;28;20039;-53
2021/01/07 08:32:44;;;;;;;18.73;13.48;;;180.00;2099.20;;;;;;5099884;28;20052;-53
2021/01/07 08:35:11;;;;;;;28.80;14.80;;;180.00;2099.20;;;;;;5113604;28;20044;-53
2021/01/07 08:37:42;;;;;;;21.33;13.98;;;179.90;2073.60;;;;;;5114260;28;20580;-53
2021/01/07 08:40:09;;;;;;;19.65;12.43;;;180.00;2073.60;;;;;;5114337;28;20023;-54
2021/01/07 08:42:37;;;;;;;23.35;14.77;;;180.00;2048.00;;;;;;5098632;28;20020;-54
2021/01/07 08:45:05;;;;;;;22.35;14.50;;;180.00;2048.00;;;;;;5094203;28;20072;-53
2021/01/07 08:47:31;;;;;;;21.23;14.45;;;180.10;2048.00;;;;;;5094173;28;20016;-54
2021/01/07 08:50:10;;;;;;;21.38;13.45;;;180.10;2048.00;;;;;;5102174;28;20399;-53
2021/01/07 08:52:49;;;;;;;24.90;15.60;;;180.10;2048.00;;;;;;5103087;28;20036;-55
2021/01/07 08:55:14;;;;;;;23.77;15.32;;;204.80;2048.00;;;;;;5093483;28;20047;-54
2021/01/07 08:57:40;;;;;;;19.95;13.38;;;204.90;2022.40;;;;;;5100416;28;20445;-54
2021/01/07 09:00:19;;;;;;;20.25;13.98;;;205.00;1996.80;;;;;;5094143;28;20024;-54
2021/01/07 09:02:46;;;;;;;21.45;13.82;;;205.00;1971.20;;;;;;5109824;28;20027;-54
2021/01/07 09:05:12;;;;;;;23.98;15.73;;;205.00;1971.20;;;;;;5108330;28;20438;-54
2021/01/07 09:07:37;;;;;;;23.08;14.88;;;205.00;1971.20;;;;;;5101956;28;20477;-55
2021/01/07 09:10:04;;;;;;;21.15;14.82;;;205.00;1971.20;;;;;;5093229;28;20161;-54
2021/01/07 09:12:34;;;;;;;26.65;15.63;;;205.10;1971.20;;;;;;5093268;28;20060;-54
2021/01/07 09:15:06;;;;;;;24.55;16.85;;;205.10;1971.20;;;;;;5093457;28;20048;-54
2021/01/07 09:17:41;;;;;;;25.45;16.35;;;205.10;1996.80;;;;;;5107317;28;20028;-54
2021/01/07 09:20:12;;;;;;;21.90;15.48;;;205.20;1971.20;;;;;;5097360;28;20072;-55
2021/01/07 09:22:38;;;;;;;25.88;16.45;;;205.20;1971.20;;;;;;5100939;28;20055;-54
2021/01/07 09:25:04;;;;;;;24.75;17.02;;;205.30;1945.60;;;;;;5093034;28;20040;-55
2021/01/07 09:27:30;;;;;;;22.80;16.10;;;205.30;1971.20;;;;;;5109509;28;20019;-55
2021/01/07 09:29:57;;;;;;;25.92;17.08;;;205.40;1945.60;;;;;;5109605;28;20058;-65
2021/01/07 09:32:23;;;;;;;25.65;17.30;;;205.50;1920.00;;;;;;5104049;28;20111;-54
2021/01/07 09:34:49;;;;;;;23.52;16.50;;;205.50;1945.60;;;;;;5108069;28;20032;-59
2021/01/07 09:37:22;;;;;;;31.83;18.33;;;205.60;1920.00;;;;;;5110442;28;20031;-59
2021/01/07 09:39:50;;;;;;;26.38;16.83;;;205.60;1945.60;;;;;;5106166;28;20020;-55
2021/01/07 09:42:17;;;;;;;31.42;18.10;;;205.60;1920.00;;;;;;5111601;28;20038;-55
2021/01/07 09:44:44;;;;;;;27.33;17.73;;;205.60;1920.00;;;;;;5109728;28;20054;-55
2021/01/07 09:47:10;;;;;;;23.58;16.20;;;205.60;1920.00;;;;;;5110541;28;20119;-55
2021/01/07 09:49:36;;;;;;;26.10;16.50;;;205.60;1920.00;;;;;;5106638;28;20533;-55
2021/01/07 09:52:03;;;;;;;22.98;15.27;;;205.60;1894.40;;;;;;5098443;28;20473;-55
2021/01/07 09:54:29;;;;;;;24.85;16.60;;;205.70;1868.80;;;;;;5111745;28;20514;-54
2021/01/07 09:56:56;;;;;;;24.20;15.25;;;205.60;1868.80;;;;;;5090320;28;20032;-54
2021/01/07 09:59:23;;;;;;;25.67;15.80;;;205.70;1868.80;;;;;;5109583;28;20466;-56
2021/01/07 10:01:59;;;;;;;18.20;12.93;;;230.40;1868.80;;;;;;5087478;28;20023;-55
2021/01/07 10:04:25;;;;;;;20.92;13.10;;;205.60;1792.00;;;;;;5102399;28;20051;-55
2021/01/07 10:06:51;;;;;;;24.33;20.77;;;205.70;1817.60;;;;;;5093259;28;20074;-55
2021/01/07 10:09:18;;;;;;;20.88;14.95;;;205.70;1843.20;;;;;;5092571;28;20070;-55
2021/01/07 10:11:48;;;;;;;21.65;15.98;;;205.70;1868.80;;;;;;5092427;28;20378;-54
2021/01/07 10:14:14;;;;;;;20.52;14.15;;;230.50;1817.60;;;;;;5082307;28;20039;-55
2021/01/07 10:16:40;;;;;;;18.73;13.43;;;230.40;1817.60;;;;;;5096690;28;20028;-57
2021/01/07 10:19:05;;;;;;;19.05;12.27;;;230.50;1792.00;;;;;;5092735;28;20451;-55
2021/01/07 10:21:38;;;;;;;18.05;13.23;;;230.50;1766.40;;;;;;5092604;28;20050;-54
2021/01/07 10:24:05;;;;;;;19.50;12.23;;;205.70;1766.40;;;;;;5092141;28;20069;-54
2021/01/07 10:26:31;;;;;;;18.70;11.85;;;205.60;1792.00;;;;;;5092416;28;20024;-56
2021/01/07 10:28:58;;;;;;;18.15;12.30;;;205.70;1766.40;;;;;;5105333;28;20115;-54
2021/01/07 10:31:24;;;;;;;17.08;12.00;;;230.40;1766.40;;;;;;5095834;28;20081;-55
2021/01/07 10:33:50;;;;;;;18.45;11.85;;;205.60;1792.00;;;;;;5097179;28;20020;-55
2021/01/07 10:36:17;;;;;;;17.08;11.32;;;230.40;1766.40;;;;;;5104843;28;20024;-60
2021/01/07 10:38:47;;;;;;;21.27;12.52;;;230.50;1766.40;;;;;;5114000;28;20032;-55
2021/01/07 10:41:14;;;;;;;15.98;11.13;;;230.60;1740.80;;;;;;5082220;28;20024;-56
2021/01/07 10:43:40;;;;;;;18.23;11.23;;;230.60;1740.80;;;;;;5096182;28;20352;-60
2021/01/07 10:46:06;;;;;;;16.77;11.48;;;230.60;1740.80;;;;;;5096108;28;20059;-55
2021/01/07 10:48:36;;;;;;;14.45;8.82;;;230.60;1715.20;;;;;;5095685;28;20103;-55
2021/01/07 10:51:03;;;;;;;15.10;9.68;;;230.60;1689.60;;;;;;5099651;28;20486;-59
2021/01/07 10:54:10;;;;;;;15.18;10.35;;;230.60;1715.20;;;;;;5096294;28;20028;-55
2021/01/07 10:56:45;;;;;;;14.48;10.50;;;230.60;1740.80;;;;;;5024379;28;20037;-60
2021/01/07 10:59:10;;;;;;;14.88;9.65;;;230.40;1766.40;;;;;;5026373;28;20041;-55
2021/01/07 11:02:21;;;;;;;14.25;10.23;;;230.50;1740.80;;;;;;5030007;28;20037;-55
2021/01/07 11:05:00;;;;;;;16.00;10.55;;;230.70;1740.80;;;;;;5028568;28;20045;-55
2021/01/07 11:07:29;;;;;;;;;;;230.80;1740.80;;;;;;5027674;28;20049;-55
2021/01/07 11:10:03;;;;;;;13.02;8.82;;;230.90;1689.60;;;;;;5028654;28;20004;-55
2021/01/07 11:12:45;;;;;;;11.90;9.18;;;230.70;1689.60;;;;;;5027593;28;20034;-54
2021/01/07 11:15:16;;;;;;;12.63;7.88;;;230.80;1715.20;;;;;;5019442;28;20553;-54
2021/01/07 11:17:51;;;;;;;18.05;9.18;;;230.80;1664.00;;;;;;5026521;28;20112;-54
2021/01/07 11:20:19;;;;;;;11.32;6.38;;;230.90;1638.40;;;;;;5019586;28;20034;-54
2021/01/07 11:22:45;;;;;;;11.93;6.78;;;230.70;1612.80;;;;;;5031084;28;20087;-59
2021/01/07 11:25:12;;;;;;;8.75;5.60;;;230.70;1664.00;;;;;;5028227;28;20018;-55
2021/01/07 11:27:37;;;;;;;7.63;5.38;;;230.70;1612.80;;;;;;5029278;28;20442;-55
2021/01/07 11:30:06;;;;;;;10.18;6.15;;;230.80;1612.80;;;;;;5038574;28;20041;-55
2021/01/07 11:32:36;;;;;;;6.05;4.53;;;230.90;1587.20;;;;;;5043394;28;20033;-55
2021/01/07 11:35:06;;;;;;;9.02;5.25;;;230.90;1536.00;;;;;;5103139;28;20040;-56
2021/01/07 11:37:40;;;;;;;7.30;5.47;;;231.00;1561.60;;;;;;5078437;28;20348;-55
2021/01/07 11:40:18;;;;;;;9.32;5.50;;;231.00;1561.60;;;;;;5103339;28;20028;-58
2021/01/07 11:43:07;;;;;;;6.70;4.28;;;231.00;1510.40;;;;;;5096231;28;20051;-55
2021/01/07 11:45:35;;;;;;;8.88;5.50;;;231.20;1484.80;;;;;;5099252;28;20023;-55
2021/01/07 11:48:06;;;;;;;5.20;4.20;;;256.00;1510.40;;;;;;5100977;28;20526;-58
2021/01/07 11:50:37;;;;;;;6.63;4.32;;;256.00;1484.80;;;;;;5094928;28;20539;-55
2021/01/07 11:53:07;;;;;;;6.15;4.30;;;231.20;1484.80;;;;;;5095137;28;20070;-57
2021/01/07 11:55:33;;;;;;;8.90;5.25;;;231.30;1459.20;;;;;;5095324;28;20069;-55
2021/01/07 11:57:59;;;;;;;6.70;4.90;;;231.20;1510.40;;;;;;5094751;28;20020;-54
2021/01/07 12:00:26;;;;;;;9.13;5.03;;;231.20;1484.80;;;;;;5102117;28;20472;-55
2021/01/07 12:02:54;;;;;;;7.43;5.22;;;231.20;1459.20;;;;;;5100145;28;20410;-54
2021/01/07 12:05:22;;;;;;;8.63;5.65;;;231.10;1459.20;;;;;;5112381;28;20389;-54
2021/01/07 12:08:07;;;;;;;12.45;7.05;;;231.20;1484.80;;;;;;5105962;28;20038;-58
2021/01/07 12:10:40;;;;;;;10.88;6.63;;;256.00;1459.20;;;;;;5109179;28;20031;-56
2021/01/07 12:13:31;;;;;;;11.93;7.15;;;256.00;1459.20;;;;;;5107477;28;20102;-56
2021/01/07 12:15:57;;;;;;;10.60;6.82;;;231.30;1484.80;;;;;;5107119;28;20028;-55